Ava, MO

5:41 PM CST on November 22, 2014 (GMT -0600)
IMOAVA2 | Change Station
CLOSE
Current Station
Personal Weather Station
Location: Ava, MO
Elevation: 1365 ft
Nearby Weather Stations

Elev 1365 ft 37.02 °N, 92.64 °W | Updated 59 seconds ago

Rain
Rain
51.3 °F
Feels Like 51.3 °F
N
3.0
Wind Variable Wind from South
Gusts 8.0 mph

Today
High -- | Low -- °F
--% Chance of Precip.
Yesterday
High -- | Low -- °F
Precip. -- in
6:56 AM 4:56 PM
New Moon, 0% visible
Pressure 29.99 in
Visibility 6.0 miles
Clouds Scattered Clouds 3000 ft
Mostly Cloudy 3800 ft
Overcast 4800 ft
Dew Point 50 °F
Humidity 96%
Rainfall 0.23 in
Snow Depth Not available.
UV 0 out of 12
Pollen 1.50 out of 12
Air Quality Not available.
Flu Activity Not available.
METAR KBPK 222253Z AUTO 15005KT 6SM BR SCT030 BKN038 OVC048 11/11 A2999 RMK AO2 RAE20 SLP156 P0002 T01060106

More Conditions Fewer Conditions

Pressure 29.99 in
Visibility 6.0 miles
Clouds Scattered Clouds 3000 ft
Mostly Cloudy 3800 ft
Overcast 4800 ft
Dew Point 50 °F
Humidity 96%
Rainfall 0.23 in
Snow Depth Not available.
UV 0 out of 12
Pollen 1.50 out of 12
Air Quality Not available.
Flu Activity Not available.
METAR KBPK 222253Z AUTO 15005KT 6SM BR SCT030 BKN038 OVC048 11/11 A2999 RMK AO2 RAE20 SLP156 P0002 T01060106

More Conditions Fewer Conditions

10-Day Weather Forecast

Almanac

Astronomy

Nov. 22, 2014 Rise Set
Actual Time
Civil Twilight
Nautical Twilight
Astronomical Twilight
Moon
Length of Visible Light
Length of Day
Tomorrow will be .
, % of the Moon is Illuminated

Today's Extremes

State Highs State Lows

Community

WunderPhotos

Upload Photos

1,772,928 photos uploaded!

WunderBlogs® & News

Nearby

Air Quality

  Air Quality AQ Index Pollutant
Not available.

Snow Depth

Station Depth Elevation

Earthquake Activity

City Distance Mag. Time & Date
Minimum magnitude displayed is 2.5.

Coastal Water Temperatures

Place Temperature

Nearby Weather Stations